Time;durP1;ratioP1;P1;durP2;ratioP2;P2;SDS_P1;SDS_P2;PMS_P1;PMS_P2;Temp;Humidity;BMP_temperature;BMP_pressure;BME280_temperature;BME280_humidity;BME280_pressure;Samples;Min_cycle;Max_cycle;Signal;HPM_P1;HPM_P2
2023/08/01 00:00:05;;;;;;;13.30;4.53;;;;;;;16.65;100.00;99185.91;5010774;28;20242;-75
2023/08/01 00:02:31;;;;;;;8.80;4.87;;;;;;;16.62;100.00;99186.03;5010175;28;20283;-75
2023/08/01 00:04:58;;;;;;;5.53;4.00;;;;;;;16.63;100.00;99195.78;5009903;28;20589;-74
2023/08/01 00:07:27;;;;;;;7.77;4.33;;;;;;;16.66;100.00;99189.50;5010616;28;20200;-74
2023/08/01 00:09:53;;;;;;;8.53;4.77;;;;;;;16.67;100.00;99192.13;5010208;28;20230;-74
2023/08/01 00:12:20;;;;;;;9.77;4.67;;;;;;;16.72;100.00;99183.97;5004910;28;20231;-75
2023/08/01 00:14:46;;;;;;;7.20;4.43;;;;;;;16.70;100.00;99170.66;5010046;28;20290;-74
2023/08/01 00:17:13;;;;;;;8.10;4.37;;;;;;;16.76;100.00;99169.56;5011740;28;20286;-74
2023/08/01 00:19:40;;;;;;;9.53;4.70;;;;;;;16.73;100.00;99158.97;5012649;28;20231;-74
2023/08/01 00:22:06;;;;;;;7.93;4.33;;;;;;;16.74;100.00;99150.03;5002729;28;20205;-73
2023/08/01 00:24:33;;;;;;;7.33;4.47;;;;;;;16.74;100.00;99134.88;5011096;28;20204;-74
2023/08/01 00:26:59;;;;;;;9.63;4.60;;;;;;;16.77;100.00;99140.13;5009646;28;20199;-75
2023/08/01 00:29:25;;;;;;;7.90;4.40;;;;;;;16.78;100.00;99136.50;5005864;28;20208;-75
2023/08/01 00:31:52;;;;;;;7.70;4.37;;;;;;;16.73;100.00;99124.22;5010687;28;20308;-75
2023/08/01 00:34:18;;;;;;;7.80;4.20;;;;;;;16.75;100.00;99122.38;5010194;28;20282;-75
2023/08/01 00:36:45;;;;;;;7.93;4.40;;;;;;;16.73;100.00;99121.53;5008703;28;20251;-73
2023/08/01 00:39:11;;;;;;;9.40;4.57;;;;;;;16.69;100.00;99103.84;5008051;28;21480;-76
2023/08/01 00:41:37;;;;;;;5.63;4.13;;;;;;;16.78;100.00;99093.72;5009727;28;20220;-75
2023/08/01 00:44:04;;;;;;;8.07;4.37;;;;;;;16.79;100.00;99097.28;5012407;28;20640;-75
2023/08/01 00:46:32;;;;;;;9.70;4.27;;;;;;;16.76;100.00;99095.59;5010049;28;20271;-74
2023/08/01 00:49:00;;;;;;;6.53;4.00;;;;;;;16.78;100.00;99099.09;5005648;28;20683;-74
2023/08/01 00:51:27;;;;;;;6.33;3.90;;;;;;;16.80;100.00;99104.38;5010423;28;20227;-75
2023/08/01 00:53:54;;;;;;;8.50;3.90;;;;;;;16.88;100.00;99115.72;5009327;28;20200;-74
2023/08/01 00:56:20;;;;;;;7.13;3.73;;;;;;;16.88;100.00;99119.28;5011764;28;20220;-73
2023/08/01 00:58:46;;;;;;;7.73;3.93;;;;;;;16.89;100.00;99120.16;5008544;28;20282;-75
2023/08/01 01:01:13;;;;;;;8.27;3.57;;;;;;;16.80;100.00;99105.25;5009112;28;20220;-75
2023/08/01 01:03:40;;;;;;;7.87;4.23;;;;;;;16.78;100.00;99098.22;5010155;28;20566;-75
2023/08/01 01:06:10;;;;;;;9.47;4.37;;;;;;;16.76;100.00;99084.88;5010490;28;20208;-75
2023/08/01 01:08:36;;;;;;;10.83;4.27;;;;;;;16.70;100.00;99069.06;5005412;28;20351;-75
2023/08/01 01:11:04;;;;;;;7.60;4.20;;;;;;;16.75;100.00;99063.56;5007584;28;20216;-75
2023/08/01 01:13:30;;;;;;;6.53;4.07;;;;;;;16.71;100.00;99051.22;5008626;28;20294;-75
2023/08/01 01:15:57;;;;;;;8.23;4.20;;;;;;;16.74;100.00;99051.09;5008547;28;20295;-75
2023/08/01 01:18:23;;;;;;;7.20;4.20;;;;;;;16.70;100.00;99053.00;5007469;28;20256;-75
2023/08/01 01:20:49;;;;;;;8.90;4.37;;;;;;;16.72;100.00;99043.13;5009103;28;20232;-75
2023/08/01 01:23:17;;;;;;;8.37;4.70;;;;;;;16.74;100.00;99046.63;5009293;28;20215;-75
2023/08/01 01:25:46;;;;;;;7.37;4.10;;;;;;;16.73;100.00;99052.03;5005138;28;20304;-75
2023/08/01 01:28:14;;;;;;;7.97;4.80;;;;;;;16.74;100.00;99048.44;5009372;28;20212;-74
2023/08/01 01:30:42;;;;;;;9.43;4.67;;;;;;;16.72;100.00;99035.13;5007899;28;20215;-74
2023/08/01 01:33:09;;;;;;;7.60;4.10;;;;;;;16.74;100.00;99019.91;5009560;28;20208;-75
2023/08/01 01:35:36;;;;;;;8.50;4.60;;;;;;;16.76;100.00;99011.81;5002572;28;20207;-75
2023/08/01 01:38:05;;;;;;;9.10;4.67;;;;;;;16.78;100.00;99023.34;5008146;28;20212;-75
2023/08/01 01:40:33;;;;;;;7.33;4.77;;;;;;;16.76;100.00;98985.97;5007760;28;20234;-74
2023/08/01 01:43:00;;;;;;;6.60;4.20;;;;;;;16.75;100.00;98984.22;5004914;28;20291;-75
2023/08/01 01:45:27;;;;;;;6.43;4.33;;;;;;;16.70;100.00;98985.31;4996502;28;20235;-75
2023/08/01 01:47:54;;;;;;;9.13;4.80;;;;;;;16.77;100.00;99001.06;5001617;28;20243;-76
2023/08/01 01:50:20;;;;;;;8.90;4.90;;;;;;;16.78;100.00;99008.16;4999343;28;20240;-75
2023/08/01 01:52:46;;;;;;;9.77;4.70;;;;;;;16.77;100.00;99021.59;5005002;28;20584;-75
2023/08/01 01:55:13;;;;;;;10.57;5.00;;;;;;;16.79;100.00;99015.25;4999435;28;20276;-75
2023/08/01 01:57:40;;;;;;;7.80;4.70;;;;;;;16.85;100.00;98993.69;5003220;28;20226;-75
2023/08/01 02:00:10;;;;;;;6.47;4.47;;;;;;;16.83;100.00;98995.56;5006511;28;20220;-75
2023/08/01 02:02:36;;;;;;;8.37;4.27;;;;;;;16.86;100.00;98986.53;5008104;28;20295;-75
2023/08/01 02:05:06;;;;;;;7.30;4.47;;;;;;;16.83;100.00;98989.31;5000603;28;20202;-74
2023/08/01 02:07:33;;;;;;;7.50;4.73;;;;;;;16.86;100.00;98975.84;5002078;28;20419;-75
2023/08/01 02:10:00;;;;;;;8.87;4.40;;;;;;;16.86;100.00;98976.72;5001030;28;20290;-75
2023/08/01 02:12:27;;;;;;;7.73;4.33;;;;;;;16.90;100.00;98978.34;5006558;28;20231;-75
2023/08/01 02:14:54;;;;;;;6.83;4.40;;;;;;;16.91;100.00;98972.09;5005924;28;20200;-74
2023/08/01 02:17:20;;;;;;;7.43;4.10;;;;;;;16.88;100.00;98942.78;5011599;28;20228;-75
2023/08/01 02:19:47;;;;;;;7.33;4.27;;;;;;;16.91;100.00;98939.13;5007402;28;20774;-74
2023/08/01 02:22:13;;;;;;;8.40;4.90;;;;;;;16.89;100.00;98935.63;5002806;28;20200;-75
2023/08/01 02:24:40;;;;;;;8.67;4.57;;;;;;;16.86;100.00;98909.88;5004583;28;20295;-75
2023/08/01 02:27:06;;;;;;;9.33;4.50;;;;;;;16.98;100.00;98923.72;5007216;28;20626;-74
2023/08/01 02:29:32;;;;;;;7.17;3.67;;;;;;;17.01;100.00;98927.16;5002900;28;20207;-75
2023/08/01 02:31:59;;;;;;;5.97;3.80;;;;;;;16.99;100.00;98921.00;4995302;28;20205;-75
2023/08/01 02:34:25;;;;;;;7.83;3.73;;;;;;;17.02;100.00;98915.53;4999002;28;20640;-74
2023/08/01 02:36:53;;;;;;;6.73;3.40;;;;;;;17.05;100.00;98917.22;4997893;28;20700;-75
2023/08/01 02:39:19;;;;;;;6.93;3.47;;;;;;;17.09;100.00;98926.88;5004733;28;20196;-75
2023/08/01 02:41:45;;;;;;;5.97;3.40;;;;;;;17.08;100.00;98904.59;5006976;28;20529;-75
2023/08/01 02:44:12;;;;;;;6.43;3.23;;;;;;;17.09;100.00;98910.81;5015355;28;20638;-75
2023/08/01 02:46:39;;;;;;;5.23;3.00;;;;;;;17.09;100.00;98903.66;5005502;28;20695;-75
2023/08/01 02:49:06;;;;;;;6.07;2.90;;;;;;;17.09;100.00;98897.44;4999558;28;20246;-75
2023/08/01 02:51:32;;;;;;;4.17;2.80;;;;;;;17.12;100.00;98908.03;5007415;28;20647;-75
2023/08/01 02:53:58;;;;;;;7.07;2.90;;;;;;;17.09;100.00;98901.00;5004612;28;20216;-75
2023/08/01 02:56:27;;;;;;;4.13;2.60;;;;;;;17.07;100.00;98888.59;4998984;28;20294;-75
2023/08/01 02:58:55;;;;;;;3.50;2.50;;;;;;;17.09;100.00;98897.44;4998941;28;20215;-75
2023/08/01 03:01:21;;;;;;;7.77;2.87;;;;;;;17.05;100.00;98893.16;4994950;28;20315;-75
2023/08/01 03:03:48;;;;;;;4.23;2.67;;;;;;;17.09;100.00;98900.13;4996344;28;20831;-75
2023/08/01 03:06:15;;;;;;;6.03;2.83;;;;;;;17.09;100.00;98906.34;5005318;28;20666;-74
2023/08/01 03:08:42;;;;;;;3.97;2.43;;;;;;;17.14;100.00;98899.03;5000633;28;20659;-75
2023/08/01 03:11:08;;;;;;;3.43;2.37;;;;;;;17.18;100.00;98905.13;5008174;28;20232;-74
2023/08/01 03:13:35;;;;;;;3.40;2.50;;;;;;;17.19;100.00;98894.38;5007002;28;20212;-75
2023/08/01 03:16:04;;;;;;;3.97;2.47;;;;;;;17.26;100.00;98902.19;4999167;28;20213;-74
2023/08/01 03:18:30;;;;;;;4.37;2.30;;;;;;;17.23;100.00;98900.50;5007822;28;20710;-74
2023/08/01 03:20:57;;;;;;;4.57;2.37;;;;;;;17.18;100.00;98905.13;4999133;28;20231;-74
2023/08/01 03:23:23;;;;;;;4.87;2.50;;;;;;;17.26;100.00;98916.44;5002578;28;20204;-74
2023/08/01 03:25:49;;;;;;;6.07;2.63;;;;;;;17.25;100.00;98909.34;5010322;28;20215;-74
2023/08/01 03:28:16;;;;;;;5.50;2.50;;;;;;;17.28;100.00;98898.53;5005481;28;20668;-74
2023/08/01 03:30:42;;;;;;;3.80;1.83;;;;;;;17.27;100.00;98904.81;5003747;28;20231;-74
2023/08/01 03:33:09;;;;;;;3.63;2.30;;;;;;;17.19;100.00;98896.16;4996384;28;20208;-73
2023/08/01 03:35:35;;;;;;;3.50;2.50;;;;;;;17.11;100.00;98896.47;5008942;28;20204;-73
2023/08/01 03:38:02;;;;;;;5.33;2.50;;;;;;;17.13;100.00;98904.44;5010976;28;20230;-74
2023/08/01 03:40:28;;;;;;;5.70;2.50;;;;;;;17.07;100.00;98891.28;5006232;28;20232;-75
2023/08/01 03:42:55;;;;;;;6.10;2.73;;;;;;;17.06;100.00;98866.34;5004527;28;20212;-74
2023/08/01 03:45:21;;;;;;;4.87;2.70;;;;;;;17.02;100.00;98882.56;5003676;28;20207;-75
2023/08/01 03:47:47;;;;;;;6.33;3.03;;;;;;;16.99;100.00;98880.00;5009915;28;20663;-75
2023/08/01 03:50:14;;;;;;;8.37;3.40;;;;;;;16.95;100.00;98876.56;5000523;28;20236;-75
2023/08/01 03:52:41;;;;;;;4.17;2.80;;;;;;;16.96;100.00;98880.13;5007790;28;20606;-75
2023/08/01 03:55:07;;;;;;;6.07;3.20;;;;;;;17.02;100.00;98882.56;5001647;28;20298;-74
2023/08/01 03:57:34;;;;;;;6.20;3.83;;;;;;;17.01;100.00;98883.50;5005233;28;20230;-75
2023/08/01 04:00:00;;;;;;;5.57;3.40;;;;;;;17.05;100.00;98883.31;5003348;28;20231;-75
2023/08/01 04:02:27;;;;;;;6.43;3.50;;;;;;;17.06;100.00;98879.72;5001030;28;20205;-73
2023/08/01 04:04:53;;;;;;;7.97;3.53;;;;;;;16.98;100.00;98860.41;5004425;28;20728;-74
2023/08/01 04:07:20;;;;;;;5.70;3.10;;;;;;;16.99;100.00;98880.88;5003714;28;20632;-74
2023/08/01 04:09:46;;;;;;;4.63;3.03;;;;;;;17.02;100.00;98879.88;5011120;28;20235;-73
2023/08/01 04:12:13;;;;;;;5.63;3.00;;;;;;;16.99;100.00;98870.16;5001756;28;20196;-74
2023/08/01 04:14:40;;;;;;;4.60;2.73;;;;;;;17.00;100.00;98879.06;5008418;28;20231;-74
2023/08/01 04:17:06;;;;;;;4.83;2.80;;;;;;;16.98;100.00;98860.41;5009564;28;20312;-72
2023/08/01 04:19:33;;;;;;;5.10;2.73;;;;;;;16.97;100.00;98866.69;5004237;28;20247;-74
2023/08/01 04:21:59;;;;;;;4.90;2.50;;;;;;;16.99;100.00;98847.91;5006004;28;20270;-74
2023/08/01 04:24:27;;;;;;;3.43;2.40;;;;;;;16.96;100.00;98840.88;5006645;28;20204;-75
2023/08/01 04:26:53;;;;;;;5.53;2.50;;;;;;;16.95;100.00;98847.16;4998573;28;20201;-75
2023/08/01 04:29:20;;;;;;;4.07;2.50;;;;;;;16.95;100.00;98838.25;5008004;28;20231;-74
2023/08/01 04:31:46;;;;;;;5.50;2.50;;;;;;;16.96;100.00;98838.19;5005308;28;20223;-75
2023/08/01 04:34:13;;;;;;;6.13;2.53;;;;;;;17.01;100.00;98852.25;5006870;28;20249;-75
2023/08/01 04:36:39;;;;;;;4.13;2.40;;;;;;;17.02;100.00;98853.13;5004555;28;20205;-75
2023/08/01 04:39:06;;;;;;;3.43;2.30;;;;;;;17.00;100.00;98849.66;5008263;28;20307;-73
2023/08/01 04:41:32;;;;;;;4.10;2.20;;;;;;;17.06;100.00;98846.75;5004699;28;20316;-74
2023/08/01 04:43:59;;;;;;;2.93;2.13;;;;;;;16.99;100.00;98838.06;5007384;28;20747;-74
2023/08/01 04:46:25;;;;;;;6.43;2.30;;;;;;;17.00;100.00;98826.44;5007106;28;20205;-75
2023/08/01 04:48:51;;;;;;;3.27;2.20;;;;;;;16.99;100.00;98826.50;5007530;28;20616;-75
2023/08/01 04:51:18;;;;;;;2.73;1.97;;;;;;;16.96;100.00;98803.44;5020695;28;20318;-74
2023/08/01 04:53:44;;;;;;;3.07;1.90;;;;;;;16.96;100.00;98797.22;5003693;28;20207;-75
2023/08/01 04:56:10;;;;;;;2.77;1.83;;;;;;;16.97;100.00;98786.44;5001837;28;20196;-74
2023/08/01 04:58:37;;;;;;;2.77;1.70;;;;;;;16.98;100.00;98801.56;4996047;28;20232;-75
2023/08/01 05:01:03;;;;;;;4.00;1.80;;;;;;;16.82;100.00;98800.41;5004072;28;20223;-75
2023/08/01 05:03:30;;;;;;;4.03;1.70;;;;;;;16.92;100.00;98824.06;4999908;28;20212;-74
2023/08/01 05:05:56;;;;;;;2.30;1.73;;;;;;;16.89;100.00;98828.66;4994714;28;20208;-75
2023/08/01 05:08:22;;;;;;;3.63;1.83;;;;;;;16.92;100.00;98825.88;5001393;28;20203;-74
2023/08/01 05:10:49;;;;;;;3.40;1.90;;;;;;;16.94;100.00;98818.66;4997905;28;20227;-74
2023/08/01 05:13:15;;;;;;;2.63;1.40;;;;;;;16.93;100.00;98816.91;5006963;28;20283;-74
2023/08/01 05:15:47;;;;;;;2.90;1.43;;;;;;;16.96;100.00;98815.94;4999254;28;20205;-75
2023/08/01 05:18:14;;;;;;;4.17;1.83;;;;;;;16.93;100.00;98835.63;4998145;28;20251;-75
2023/08/01 05:20:41;;;;;;;3.37;1.60;;;;;;;16.94;100.00;98828.50;5006635;28;20232;-75
2023/08/01 05:23:07;;;;;;;3.03;1.60;;;;;;;16.97;100.00;98826.56;5009418;28;20204;-74
2023/08/01 05:25:34;;;;;;;4.23;1.80;;;;;;;16.97;100.00;98821.22;4995126;28;20664;-75
2023/08/01 05:28:01;;;;;;;3.73;1.57;;;;;;;16.96;100.00;98837.31;5013610;28;20211;-75
2023/08/01 05:30:27;;;;;;;2.47;1.30;;;;;;;16.96;100.00;98832.84;5002645;28;20309;-74
2023/08/01 05:32:54;;;;;;;2.10;1.47;;;;;;;17.00;100.00;98828.25;4992284;28;20236;-75
2023/08/01 05:35:21;;;;;;;2.53;1.53;;;;;;;16.96;100.00;98830.16;5004064;28;20200;-75
2023/08/01 05:37:47;;;;;;;2.17;1.37;;;;;;;16.96;100.00;98819.47;4997515;28;20231;-74
2023/08/01 05:40:13;;;;;;;2.23;1.40;;;;;;;16.96;100.00;98815.94;4991897;28;20247;-75
2023/08/01 05:42:40;;;;;;;3.97;1.40;;;;;;;16.95;100.00;98820.41;4992974;28;20200;-75
2023/08/01 05:45:11;;;;;;;3.13;1.60;;;;;;;16.96;100.00;98819.47;4994850;28;20563;-74
2023/08/01 05:47:39;;;;;;;1.77;1.30;;;;;;;16.96;100.00;98829.31;4995847;28;20231;-74
2023/08/01 05:50:07;;;;;;;3.23;1.70;;;;;;;16.86;100.00;98813.59;5006209;28;20223;-75
2023/08/01 05:52:34;;;;;;;2.57;1.50;;;;;;;17.00;100.00;98822.91;4995123;28;20204;-75
2023/08/01 05:55:00;;;;;;;1.83;1.23;;;;;;;17.06;100.00;98830.69;5001612;28;20583;-75
2023/08/01 05:57:27;;;;;;;1.97;1.30;;;;;;;17.14;100.00;98841.97;4994101;28;21064;-75
2023/08/01 05:59:53;;;;;;;2.17;1.13;;;;;;;17.06;100.00;98842.25;4997639;28;20227;-74
2023/08/01 06:02:20;;;;;;;2.10;1.10;;;;;;;17.20;100.00;98863.13;5005512;28;20200;-73
2023/08/01 06:04:46;;;;;;;1.40;1.30;;;;;;;17.07;100.00;98856.50;5011349;28;20204;-74
2023/08/01 06:07:13;;;;;;;2.33;1.30;;;;;;;16.99;100.00;98866.63;4996748;28;20204;-77
2023/08/01 06:09:39;;;;;;;2.53;1.40;;;;;;;16.87;100.00;98863.47;5005215;28;20200;-77
2023/08/01 06:12:06;;;;;;;2.23;1.70;;;;;;;16.90;100.00;98858.03;5001352;28;20204;-76
2023/08/01 06:14:33;;;;;;;3.77;1.30;;;;;;;16.89;100.00;98858.94;5005915;28;20292;-76
2023/08/01 06:16:59;;;;;;;3.17;1.43;;;;;;;16.89;100.00;98866.09;5003357;28;20204;-76
2023/08/01 06:19:25;;;;;;;2.67;1.63;;;;;;;16.85;100.00;98862.66;5004554;28;20252;-76
2023/08/01 06:21:52;;;;;;;1.33;1.20;;;;;;;16.88;100.00;98886.63;5012006;28;20726;-76
2023/08/01 06:24:18;;;;;;;1.10;0.90;;;;;;;16.87;100.00;98887.53;5007182;28;20645;-76
2023/08/01 06:26:45;;;;;;;1.17;0.70;;;;;;;16.84;100.00;98890.34;5012639;28;20310;-76
2023/08/01 06:29:11;;;;;;;1.10;0.70;;;;;;;16.90;100.00;98895.47;5010774;28;20196;-76
2023/08/01 06:31:38;;;;;;;1.10;0.90;;;;;;;16.88;100.00;98908.00;5009096;28;20316;-76
2023/08/01 06:34:04;;;;;;;0.80;0.80;;;;;;;16.92;100.00;98916.78;5010450;28;20250;-76
2023/08/01 06:36:32;;;;;;;0.83;0.60;;;;;;;17.00;100.00;98921.88;5012008;28;20206;-75
2023/08/01 06:38:58;;;;;;;2.30;0.70;;;;;;;17.14;100.00;98916.88;5011566;28;20230;-75
2023/08/01 06:41:25;;;;;;;0.93;0.80;;;;;;;17.32;100.00;98915.34;5006554;28;20233;-76
2023/08/01 06:43:51;;;;;;;1.93;1.00;;;;;;;17.45;100.00;98919.28;5018283;28;20200;-76
2023/08/01 06:46:17;;;;;;;1.00;0.90;;;;;;;17.55;100.00;98926.03;5009439;28;20297;-76
2023/08/01 06:48:44;;;;;;;0.80;0.80;;;;;;;17.63;100.00;98923.94;5010674;28;20644;-76
2023/08/01 06:51:11;;;;;;;1.30;1.13;;;;;;;17.57;100.00;98926.84;5009608;28;20224;-75
2023/08/01 06:53:37;;;;;;;2.70;0.90;;;;;;;17.65;100.00;98943.50;5012012;28;20207;-75
2023/08/01 06:56:04;;;;;;;0.90;0.80;;;;;;;17.73;100.00;98949.47;5012208;28;20672;-75
2023/08/01 06:58:30;;;;;;;1.07;0.80;;;;;;;17.80;100.00;98942.94;5004991;28;20220;-73
2023/08/01 07:00:57;;;;;;;1.50;0.80;;;;;;;17.97;100.00;98944.94;5010377;28;20311;-74
2023/08/01 07:03:23;;;;;;;1.80;0.80;;;;;;;18.04;100.00;98937.53;5009221;28;20214;-74
2023/08/01 07:05:50;;;;;;;0.60;0.60;;;;;;;18.16;100.00;98947.75;5007724;28;20212;-74
2023/08/01 07:08:18;;;;;;;0.60;0.60;;;;;;;18.28;100.00;98943.69;5009303;28;20200;-74
2023/08/01 07:10:45;;;;;;;2.70;0.80;;;;;;;18.44;100.00;98942.16;5010326;28;20216;-75
2023/08/01 07:13:12;;;;;;;1.13;0.70;;;;;;;18.60;100.00;98945.06;5009989;28;20223;-74
2023/08/01 07:15:38;;;;;;;1.73;0.73;;;;;;;18.70;100.00;98947.31;5007243;28;20291;-74
2023/08/01 07:18:04;;;;;;;0.60;0.60;;;;;;;18.71;100.00;98949.03;5011457;28;20307;-74
2023/08/01 07:20:31;;;;;;;0.63;0.55;;;;;;;18.76;100.00;98951.53;5017847;28;20334;-74
2023/08/01 07:22:57;;;;;;;1.00;0.75;;;;;;;18.75;100.00;98950.66;5010293;28;20280;-74
2023/08/01 07:25:26;;;;;;;1.42;0.70;;;;;;;18.55;100.00;98955.09;5015406;28;20690;-74
2023/08/01 07:27:52;;;;;;;1.33;0.73;;;;;;;18.47;100.00;98960.78;5008882;28;20583;-74
2023/08/01 07:30:19;;;;;;;0.70;0.70;;;;;;;18.31;100.00;98947.13;5007867;28;20231;-74
2023/08/01 07:32:47;;;;;;;2.90;1.00;;;;;;;18.46;100.00;98961.72;5007685;28;20644;-74
2023/08/01 07:35:13;;;;;;;0.77;0.77;;;;;;;18.71;100.00;98961.59;5004664;28;20197;-74
2023/08/01 07:37:40;;;;;;;1.07;0.63;;;;;;;20.14;100.00;98957.75;5009481;28;20314;-74
2023/08/01 07:40:07;;;;;;;3.30;0.70;;;;;;;21.25;100.00;98967.44;5007380;28;20227;-73
2023/08/01 07:42:33;;;;;;;0.88;0.70;;;;;;;22.66;100.00;98961.34;5009573;28;20240;-72
2023/08/01 07:45:00;;;;;;;1.35;0.80;;;;;;;23.87;100.00;98965.66;5014960;28;20204;-74
2023/08/01 07:47:26;;;;;;;3.92;0.77;;;;;;;24.60;100.00;98969.03;5009654;28;20204;-74
2023/08/01 07:49:53;;;;;;;1.60;1.10;;;;;;;24.36;100.00;98984.16;5006684;28;20303;-74
2023/08/01 07:52:19;;;;;;;2.42;1.02;;;;;;;23.77;100.00;98983.44;5007782;28;20707;-74
2023/08/01 07:54:46;;;;;;;2.03;0.70;;;;;;;23.97;100.00;98977.63;5008143;28;20248;-74
2023/08/01 07:57:12;;;;;;;1.05;0.80;;;;;;;24.07;100.00;98983.34;5015928;28;20210;-73
2023/08/01 07:59:38;;;;;;;1.75;0.73;;;;;;;23.27;100.00;98987.41;5015022;28;20255;-74
2023/08/01 08:02:05;;;;;;;2.83;0.90;;;;;;;23.32;100.00;98987.13;5010323;28;20202;-73
2023/08/01 08:04:31;;;;;;;1.02;0.70;;;;;;;23.41;100.00;98992.84;5010164;28;20699;-73
2023/08/01 08:06:59;;;;;;;0.90;0.80;;;;;;;22.05;100.00;98981.06;5008695;28;20291;-74
2023/08/01 08:09:27;;;;;;;3.20;0.80;;;;;;;22.26;100.00;98984.34;5006954;28;20228;-74
2023/08/01 08:11:53;;;;;;;2.13;0.80;;;;;;;22.85;100.00;98987.28;5013732;28;20216;-73
2023/08/01 08:14:21;;;;;;;0.80;0.80;;;;;;;22.60;100.00;98999.47;5003521;28;20212;-73
2023/08/01 08:16:50;;;;;;;1.10;0.90;;;;;;;21.90;100.00;99006.13;5010353;28;20579;-74
2023/08/01 08:19:17;;;;;;;0.90;0.80;;;;;;;21.62;100.00;98995.13;5009610;28;20212;-75
2023/08/01 08:21:43;;;;;;;2.88;1.00;;;;;;;21.75;100.00;98994.34;5013445;28;20264;-73
2023/08/01 08:24:09;;;;;;;1.00;0.82;;;;;;;21.34;100.00;99009.19;5008476;28;20656;-76
2023/08/01 08:26:37;;;;;;;1.50;1.00;;;;;;;21.55;100.00;99008.88;5009863;28;20211;-71
2023/08/01 08:29:04;;;;;;;1.45;0.95;;;;;;;21.41;100.00;99021.38;5007265;28;20196;-74
2023/08/01 08:31:31;;;;;;;1.52;1.13;;;;;;;21.66;100.00;99026.34;5002638;28;20227;-73
2023/08/01 08:33:57;;;;;;;1.20;1.10;;;;;;;21.87;100.00;99023.34;5011469;28;20287;-74
2023/08/01 08:36:24;;;;;;;2.63;1.05;;;;;;;21.37;100.00;99022.47;5009248;28;20588;-73
2023/08/01 08:38:50;;;;;;;2.25;1.23;;;;;;;21.35;100.00;99027.94;5012783;28;20659;-74
2023/08/01 08:41:21;;;;;;;1.08;0.90;;;;;;;21.27;100.00;99039.13;5006199;28;20224;-75
2023/08/01 08:43:49;;;;;;;1.50;1.13;;;;;;;21.40;100.00;99020.50;5008831;28;20201;-74
2023/08/01 08:46:16;;;;;;;1.48;1.00;;;;;;;21.02;100.00;99040.41;5009604;28;20483;-75
2023/08/01 08:48:45;;;;;;;1.98;1.02;;;;;;;21.36;100.00;99024.31;5011073;28;20200;-72
2023/08/01 08:51:12;;;;;;;1.77;1.10;;;;;;;21.75;100.00;99034.78;5008961;28;20703;-72
2023/08/01 08:53:40;;;;;;;2.00;1.00;;;;;;;21.99;100.00;99020.91;5007958;28;20249;-72
2023/08/01 08:56:09;;;;;;;1.48;0.80;;;;;;;22.26;100.00;99029.34;5009265;28;20637;-73
2023/08/01 08:58:38;;;;;;;4.18;1.10;;;;;;;22.38;100.00;99020.53;5012318;28;20218;-73
2023/08/01 09:01:05;;;;;;;1.75;1.05;;;;;;;23.04;100.00;99033.84;5004870;28;20604;-73
2023/08/01 09:03:32;;;;;;;2.15;1.17;;;;;;;23.11;100.00;99032.50;5009668;28;20215;-73
2023/08/01 09:06:11;;;;;;;1.63;1.10;;;;;;;23.51;78.65;99030.97;5009320;28;20211;-74
2023/08/01 09:08:39;;;;;;;1.48;1.20;;;;;;;23.91;70.83;99018.59;5005772;28;20691;-74
2023/08/01 09:11:06;;;;;;;1.45;1.35;;;;;;;23.51;64.59;99022.00;5010767;28;20251;-69
2023/08/01 09:13:34;;;;;;;4.20;1.38;;;;;;;23.34;68.73;99020.34;5011046;28;20422;-72
2023/08/01 09:16:02;;;;;;;2.05;1.30;;;;;;;23.13;69.08;99015.25;5006676;28;20199;-73
2023/08/01 09:18:29;;;;;;;1.50;1.10;;;;;;;22.92;69.92;99027.34;5008416;28;20619;-72
2023/08/01 09:21:02;;;;;;;2.15;1.27;;;;;;;22.63;70.01;99011.94;5009056;28;20227;-72
2023/08/01 09:23:30;;;;;;;3.05;1.40;;;;;;;22.90;74.67;99025.69;5012730;28;20254;-73
2023/08/01 09:25:56;;;;;;;1.95;1.10;;;;;;;23.48;69.83;99027.59;5008232;28;20196;-72
2023/08/01 09:28:26;;;;;;;2.47;1.30;;;;;;;23.36;70.04;99024.69;5008001;28;20238;-73
2023/08/01 09:30:55;;;;;;;2.38;1.42;;;;;;;23.51;68.85;99016.59;5009082;28;20775;-71
2023/08/01 09:33:22;;;;;;;1.40;1.10;;;;;;;23.26;68.33;99026.22;5006436;28;20627;-71
2023/08/01 09:35:52;;;;;;;1.85;1.20;;;;;;;23.61;69.19;99018.66;5009398;28;20200;-73
2023/08/01 09:38:20;;;;;;;2.67;1.20;;;;;;;23.92;67.55;99028.44;5007134;28;20204;-71
2023/08/01 09:40:47;;;;;;;2.25;1.48;;;;;;;23.95;63.53;99027.38;5005855;28;20222;-72
2023/08/01 09:43:13;;;;;;;1.35;1.10;;;;;;;23.51;62.49;99030.09;5008817;28;20219;-71
2023/08/01 09:45:53;;;;;;;3.67;1.25;;;;;;;22.94;65.57;99043.44;5005764;28;20570;-70
2023/08/01 09:48:27;;;;;;;3.15;1.48;;;;;;;22.52;66.71;99034.16;5012502;28;20661;-72
2023/08/01 09:51:07;;;;;;;2.45;1.45;;;;;;;22.07;67.29;99045.69;5008813;28;20238;-73
2023/08/01 09:53:34;;;;;;;2.78;1.60;;;;;;;22.28;67.69;99035.50;5011717;28;20709;-72
2023/08/01 09:56:02;;;;;;;2.00;1.45;;;;;;;22.57;67.20;99045.53;5012053;28;20636;-70
2023/08/01 09:58:33;;;;;;;2.60;1.10;;;;;;;22.75;68.32;99040.91;5010076;28;20200;-73
2023/08/01 10:01:01;;;;;;;2.92;1.42;;;;;;;22.94;66.94;99047.03;5012765;28;20277;-72
2023/08/01 10:03:28;;;;;;;2.95;1.55;;;;;;;23.12;64.18;99063.97;5008226;28;20228;-72
2023/08/01 10:05:56;;;;;;;3.22;1.75;;;;;;;23.82;62.02;99053.44;5005903;28;20207;-73
2023/08/01 10:08:23;;;;;;;2.67;1.83;;;;;;;24.38;58.72;99047.19;5008998;28;20298;-72
2023/08/01 10:10:50;;;;;;;2.63;1.85;;;;;;;24.01;59.84;99051.31;5012980;28;20216;-73
2023/08/01 10:13:17;;;;;;;3.30;1.90;;;;;;;24.24;60.09;99058.88;5013152;28;20200;-72
2023/08/01 10:15:45;;;;;;;2.63;1.40;;;;;;;24.33;58.27;99063.72;5011534;28;20279;-72
2023/08/01 10:18:11;;;;;;;2.40;1.70;;;;;;;24.78;59.33;99061.69;5009124;28;20258;-72
2023/08/01 10:20:39;;;;;;;2.78;1.80;;;;;;;24.78;57.70;99055.41;5007022;28;20299;-73
2023/08/01 10:23:07;;;;;;;3.72;2.10;;;;;;;24.41;58.81;99055.09;5011766;28;20287;-73
2023/08/01 10:25:34;;;;;;;1.83;1.58;;;;;;;24.02;57.51;99059.38;5015402;28;20286;-73
2023/08/01 10:28:01;;;;;;;2.70;1.50;;;;;;;23.60;58.05;99070.09;5007090;28;20207;-72
2023/08/01 10:30:29;;;;;;;2.53;1.92;;;;;;;23.29;59.38;99077.34;5011656;28;20306;-72
2023/08/01 10:32:57;;;;;;;3.63;1.33;;;;;;;23.58;60.62;99074.75;5009935;28;20662;-75
2023/08/01 10:35:36;;;;;;;2.72;1.30;;;;;;;23.95;57.98;99078.75;5008318;28;20644;-72
2023/08/01 10:38:13;;;;;;;3.05;1.70;;;;;;;23.84;58.19;99073.16;5005996;28;20204;-74
2023/08/01 10:40:42;;;;;;;3.75;1.70;;;;;;;23.67;59.84;99075.06;5012587;28;20220;-72
2023/08/01 10:43:22;;;;;;;1.83;1.20;;;;;;;23.09;60.68;99070.41;5004880;28;20215;-73
2023/08/01 10:46:01;;;;;;;1.45;1.35;;;;;;;22.92;61.54;99085.88;5012899;28;20204;-73
2023/08/01 10:48:27;;;;;;;3.95;1.60;;;;;;;22.53;63.19;99081.75;5013349;28;20203;-73
2023/08/01 10:50:57;;;;;;;2.38;1.55;;;;;;;22.62;63.79;99083.94;5007600;28;20711;-73
2023/08/01 10:53:24;;;;;;;3.00;1.35;;;;;;;22.27;65.47;99079.63;5011619;28;20200;-72
2023/08/01 10:55:50;;;;;;;2.95;1.35;;;;;;;22.17;65.34;99082.84;5004342;28;20204;-74
2023/08/01 10:58:17;;;;;;;2.38;1.40;;;;;;;22.78;64.23;99092.00;5010791;28;20207;-72
2023/08/01 11:00:43;;;;;;;3.72;1.40;;;;;;;22.66;62.81;99085.50;5004649;28;20220;-74
2023/08/01 11:03:09;;;;;;;3.13;1.50;;;;;;;22.49;63.99;99072.97;5011837;28;20254;-72
2023/08/01 11:05:36;;;;;;;3.08;1.38;;;;;;;22.83;63.06;99079.19;5009660;28;20296;-71
2023/08/01 11:08:03;;;;;;;3.25;1.50;;;;;;;23.08;62.28;99087.56;5009318;28;20668;-74
2023/08/01 11:10:31;;;;;;;3.40;1.38;;;;;;;23.04;62.45;99082.44;5013967;28;20219;-74
2023/08/01 11:12:59;;;;;;;2.53;1.42;;;;;;;23.40;62.39;99079.41;5011218;28;20200;-74
2023/08/01 11:15:25;;;;;;;2.97;2.10;;;;;;;24.10;60.59;99083.22;5009388;28;20299;-75
2023/08/01 11:17:54;;;;;;;2.60;1.60;;;;;;;24.47;56.74;99087.22;5009826;28;20246;-74
2023/08/01 11:20:22;;;;;;;1.75;1.30;;;;;;;24.34;55.50;99078.13;5011002;28;20232;-74
2023/08/01 11:23:04;;;;;;;1.75;1.40;;;;;;;24.27;54.93;99082.16;5009800;28;20200;-74
2023/08/01 11:25:36;;;;;;;2.33;1.40;;;;;;;23.97;55.63;99093.06;5011557;28;20218;-74